Time;durP1;ratioP1;P1;durP2;ratioP2;P2;SDS_P1;SDS_P2;PMS_P1;PMS_P2;Temp;Humidity;BMP_temperature;BMP_pressure;BME280_temperature;BME280_humidity;BME280_pressure;Samples;Min_cycle;Max_cycle;Signal;HPM_P1;HPM_P2
2023/02/04 00:01:06;;;;;;;;;1.33;1.00;;;;;21.33;47.71;103497.63;5076046;27;45413;-71
2023/02/04 00:03:32;;;;;;;;;0.00;0.00;;;;;21.33;47.63;103495.81;5075888;28;47447;-72
2023/02/04 00:05:57;;;;;;;;;1.33;0.00;;;;;21.23;47.21;103474.47;5075766;28;45335;-72
2023/02/04 00:08:23;;;;;;;;;0.00;0.00;;;;;21.34;47.40;103499.31;5076222;28;45876;-72
2023/02/04 00:10:48;;;;;;;;;1.00;1.00;;;;;21.34;47.04;103488.72;5076066;27;45396;-71
2023/02/04 00:13:13;;;;;;;;;0.67;0.67;;;;;21.34;47.11;103489.56;5075537;28;45554;-71
2023/02/04 00:15:39;;;;;;;;;2.33;1.33;;;;;21.35;46.84;103485.09;5075922;28;45433;-71
2023/02/04 00:18:06;;;;;;;;;1.33;1.33;;;;;21.36;46.79;103497.41;5076145;28;45623;-71
2023/02/04 00:20:31;;;;;;;;;0.67;0.67;;;;;21.35;47.08;103487.75;5076016;27;45361;-71
2023/02/04 00:22:57;;;;;;;;;1.00;1.00;;;;;21.30;46.53;103480.16;5075579;28;46472;-71
2023/02/04 00:25:22;;;;;;;;;1.67;0.00;;;;;21.35;46.79;103485.09;5057608;28;45468;-71
2023/02/04 00:27:47;;;;;;;;;1.00;1.00;;;;;21.34;47.14;103486.91;5079099;27;45434;-71
2023/02/04 00:30:13;;;;;;;;;0.00;0.00;;;;;21.34;46.51;103488.72;5079476;28;45379;-71
2023/02/04 00:32:38;;;;;;;;;1.00;1.00;;;;;21.32;47.09;103485.31;5079314;27;46124;-72
2023/02/04 00:35:04;;;;;;;;;0.00;0.00;;;;;21.32;46.86;103491.47;5079207;28;45267;-71
2023/02/04 00:37:31;;;;;;;;;0.67;0.67;;;;;21.32;47.06;103490.63;5079332;27;45297;-71
2023/02/04 00:39:56;;;;;;;;;0.00;0.00;;;;;21.32;46.67;103485.31;5079337;28;45614;-71
2023/02/04 00:42:22;;;;;;;;;1.00;1.00;;;;;21.32;46.94;103487.97;5078390;28;46152;-71
2023/02/04 00:44:47;;;;;;;;;1.00;1.00;;;;;21.31;46.98;103481.84;5078946;28;45368;-71
2023/02/04 00:47:12;;;;;;;;;1.00;1.00;;;;;21.31;46.55;103481.00;5079294;27;45340;-72
2023/02/04 00:49:38;;;;;;;;;1.00;0.00;;;;;21.29;46.68;103474.00;5079047;28;45271;-72
2023/02/04 00:52:03;;;;;;;;;2.00;0.00;;;;;21.29;46.52;103475.78;5078808;28;46046;-72
2023/02/04 00:54:29;;;;;;;;;0.00;0.00;;;;;21.29;46.53;103467.84;5078929;28;45273;-71
2023/02/04 00:56:54;;;;;;;;;2.00;1.00;;;;;21.28;46.39;103467.03;5078713;28;45391;-71
2023/02/04 00:59:19;;;;;;;;;1.33;1.00;;;;;21.29;46.86;103476.66;5078873;28;45474;-71
2023/02/04 01:01:45;;;;;;;;;0.00;0.00;;;;;21.28;46.88;103467.03;5060235;28;46294;-71
2023/02/04 01:04:10;;;;;;;;;0.67;0.67;;;;;21.28;46.34;103474.97;5078474;28;45366;-72
2023/02/04 01:06:35;;;;;;;;;0.67;0.67;;;;;21.27;46.79;103478.56;5078987;27;45405;-71
2023/02/04 01:09:02;;;;;;;;;3.67;0.33;;;;;21.28;46.46;103480.28;5078885;28;45389;-71
2023/02/04 01:11:28;;;;;;;;;1.00;1.00;;;;;21.26;46.96;103478.69;5078355;28;47281;-71
2023/02/04 01:13:54;;;;;;;;;1.00;1.00;;;;;21.26;46.73;103482.16;5078466;28;45423;-71
2023/02/04 01:16:19;;;;;;;;;1.00;1.00;;;;;21.26;46.80;103474.22;5078729;28;45392;-71
2023/02/04 01:18:44;;;;;;;;;0.33;0.33;;;;;21.24;46.81;103472.63;5078722;27;45333;-72
2023/02/04 01:21:10;;;;;;;;;0.00;0.00;;;;;21.25;46.61;103477.84;5060294;27;47117;-72
2023/02/04 01:23:35;;;;;;;;;1.00;1.00;;;;;21.25;46.75;103474.34;5078374;28;45427;-71
2023/02/04 01:26:01;;;;;;;;;1.00;1.00;;;;;21.15;46.42;103460.91;5078017;28;45418;-72
2023/02/04 01:28:26;;;;;;;;;1.67;0.67;;;;;21.25;46.27;103483.13;5078552;27;45475;-71
2023/02/04 01:30:52;;;;;;;;;2.00;1.00;;;;;21.23;46.66;103474.47;5078310;28;46264;-71
2023/02/04 01:33:17;;;;;;;;;2.67;1.00;;;;;21.23;46.14;103473.59;5078334;27;45316;-71
2023/02/04 01:35:42;;;;;;;;;0.00;0.00;;;;;21.23;46.45;103474.47;5078558;28;45331;-72
2023/02/04 01:38:08;;;;;;;;;0.33;0.33;;;;;21.24;46.37;103478.78;5077854;28;45254;-72
2023/02/04 01:40:33;;;;;;;;;1.00;1.00;;;;;21.23;46.35;103479.75;5077936;28;46032;-71
2023/02/04 01:42:58;;;;;;;;;1.00;1.00;;;;;21.23;46.10;103485.06;5078123;28;45273;-71
2023/02/04 01:45:24;;;;;;;;;3.00;1.00;;;;;21.15;46.14;103480.31;5078325;28;45650;-71
2023/02/04 01:47:50;;;;;;;;;1.00;1.00;;;;;21.24;46.08;103497.31;5078045;27;45395;-71
2023/02/04 01:50:16;;;;;;;;;0.00;0.00;;;;;21.22;46.26;103493.94;5077909;28;47096;-71
2023/02/04 01:52:43;;;;;;;;;1.00;1.00;;;;;21.12;46.25;103471.72;5078013;28;45427;-72
2023/02/04 01:55:18;;;;;;;;;2.00;0.00;;;;;21.23;46.42;103495.63;5077747;27;45354;-71
2023/02/04 01:57:44;;;;;;;;;0.00;0.00;;;;;21.22;46.07;103488.66;5078001;28;45448;-71
2023/02/04 02:00:21;;;;;;;;;1.00;1.00;;;;;21.21;46.43;103486.13;5077593;27;46991;-71
2023/02/04 02:02:49;;;;;;;;;0.00;0.00;;;;;21.20;46.60;103493.22;5077701;28;45281;-71
2023/02/04 02:05:22;;;;;;;;;2.00;1.00;;;;;21.13;46.38;103479.53;5077728;28;45474;-71
2023/02/04 02:07:49;;;;;;;;;3.00;1.00;;;;;21.11;45.80;103473.53;5077846;27;45321;-71
2023/02/04 02:10:17;;;;;;;;;1.00;1.00;;;;;21.17;46.61;103486.34;5077159;28;46162;-71
2023/02/04 02:12:43;;;;;;;;;1.00;0.00;;;;;21.19;46.01;103483.56;5059714;28;45306;-72
2023/02/04 02:15:10;;;;;;;;;1.00;1.00;;;;;21.19;45.68;103488.84;5077756;28;45375;-72
2023/02/04 02:17:36;;;;;;;;;2.00;1.00;;;;;21.21;45.83;103486.13;5077698;28;45257;-71
2023/02/04 02:20:04;;;;;;;;;1.00;1.00;;;;;21.20;46.36;103493.22;5077589;28;45359;-71
2023/02/04 02:23:11;;;;;;;;;1.00;1.00;;;;;21.18;45.90;103485.34;5077489;28;45344;-71
2023/02/04 02:25:36;;;;;;;;;1.67;0.00;;;;;21.19;46.07;103488.84;5077173;28;45269;-71
2023/02/04 02:28:06;;;;;;;;;1.00;1.00;;;;;21.18;46.17;103485.34;5077557;28;45384;-72
2023/02/04 02:30:31;;;;;;;;;1.00;1.00;;;;;21.16;46.02;103484.63;5059224;28;46808;-71
2023/02/04 02:32:57;;;;;;;;;1.00;0.50;;;;;21.15;46.22;103475.00;5077502;27;45428;-71
2023/02/04 02:35:22;;;;;;;;;1.00;1.00;;;;;21.11;45.90;103465.56;5077532;28;45465;-71
2023/02/04 02:37:48;;;;;;;;;1.33;1.33;;;;;21.15;46.23;103472.38;5059274;28;45387;-71
2023/02/04 02:40:14;;;;;;;;;1.00;1.00;;;;;21.15;45.89;103475.00;5076942;28;45372;-71
2023/02/04 02:42:42;;;;;;;;;0.00;0.00;;;;;21.08;46.24;103468.44;5077192;27;45397;-71
2023/02/04 02:45:16;;;;;;;;;4.33;1.00;;;;;21.16;45.86;103489.06;5077465;28;45412;-71
2023/02/04 02:47:42;;;;;;;;;1.00;1.00;;;;;21.11;45.87;103475.31;5077088;28;45793;-71
2023/02/04 02:50:14;;;;;;;;;1.00;1.00;;;;;21.10;46.22;103468.34;5075799;28;47331;-71
2023/02/04 02:52:40;;;;;;;;;0.33;0.33;;;;;21.07;46.20;103469.41;5076755;27;45333;-71
2023/02/04 02:55:13;;;;;;;;;1.33;0.33;;;;;21.14;46.10;103472.44;5077052;28;45369;-72
2023/02/04 02:57:38;;;;;;;;;0.00;0.00;;;;;21.14;46.21;103467.16;5077165;28;45464;-72
2023/02/04 03:00:16;;;;;;;;;1.00;1.00;;;;;21.11;46.10;103456.78;5076685;27;45608;-72
2023/02/04 03:02:42;;;;;;;;;0.00;0.00;;;;;21.15;46.03;103464.41;5076952;28;45341;-71
2023/02/04 03:05:08;;;;;;;;;2.00;0.00;;;;;21.11;45.75;103459.44;5076676;28;45363;-71
2023/02/04 03:07:34;;;;;;;;;1.00;1.00;;;;;21.08;45.88;103460.50;5076811;27;45340;-71
2023/02/04 03:09:59;;;;;;;;;1.00;1.00;;;;;21.14;46.22;103472.44;5076709;28;45422;-71
2023/02/04 03:12:25;;;;;;;;;1.00;0.67;;;;;21.12;45.80;103466.44;5076829;28;45370;-71
2023/02/04 03:14:50;;;;;;;;;1.00;1.00;;;;;21.17;45.84;103477.53;5076771;28;45270;-70
2023/02/04 03:17:16;;;;;;;;;0.33;0.33;;;;;21.06;46.07;103457.97;5076919;28;45303;-71
2023/02/04 03:19:42;;;;;;;;;0.00;0.00;;;;;21.16;46.11;103474.03;5076637;28;46036;-71
2023/02/04 03:22:07;;;;;;;;;1.00;1.00;;;;;21.16;45.84;103465.25;5076391;27;45369;-71
2023/02/04 03:24:34;;;;;;;;;0.00;0.00;;;;;21.15;45.64;103475.00;5076821;28;45362;-71
2023/02/04 03:27:00;;;;;;;;;1.00;0.00;;;;;21.11;46.04;103465.56;5076667;28;45336;-71
2023/02/04 03:29:25;;;;;;;;;0.00;0.00;;;;;21.09;45.49;103454.25;5076475;28;46215;-71
2023/02/04 03:31:50;;;;;;;;;0.00;0.00;;;;;21.14;46.09;103464.50;5076431;28;45344;-71
2023/02/04 03:34:16;;;;;;;;;2.00;1.00;;;;;21.13;46.18;103465.50;5076679;27;45419;-71
2023/02/04 03:36:41;;;;;;;;;1.67;0.00;;;;;21.09;46.02;103464.00;5076168;28;45440;-69
2023/02/04 03:39:07;;;;;;;;;0.00;0.00;;;;;21.13;46.12;103468.13;5076282;28;47311;-71
2023/02/04 03:41:32;;;;;;;;;0.00;0.00;;;;;21.02;46.01;103453.88;5076490;27;45364;-72
2023/02/04 03:43:58;;;;;;;;;0.00;0.00;;;;;21.13;45.80;103476.06;5076504;27;45340;-71
2023/02/04 03:46:24;;;;;;;;;4.00;1.00;;;;;21.09;45.97;103459.56;5076423;28;45428;-71
2023/02/04 03:48:50;;;;;;;;;1.00;1.00;;;;;21.02;46.05;103453.88;5076098;28;47021;-71
2023/02/04 03:51:15;;;;;;;;;1.33;0.00;;;;;21.10;46.05;103473.66;5075790;27;45366;-71
2023/02/04 03:53:40;;;;;;;;;2.00;0.00;;;;;21.12;46.10;103477.88;5076364;28;45331;-70
2023/02/04 03:56:06;;;;;;;;;0.00;0.00;;;;;21.12;45.87;103480.53;5076256;28;45249;-70
2023/02/04 03:58:31;;;;;;;;;1.00;1.00;;;;;21.12;45.70;103488.47;5076066;28;47133;-72
2023/02/04 04:00:56;;;;;;;;;1.33;1.00;;;;;21.12;45.89;103485.81;5075728;27;45416;-71
2023/02/04 04:03:22;;;;;;;;;0.33;0.33;;;;;21.12;45.51;103488.47;5076009;28;45319;-71
2023/02/04 04:05:47;;;;;;;;;1.00;1.00;;;;;21.06;46.04;103483.59;5075476;28;45410;-70
2023/02/04 04:08:12;;;;;;;;;0.67;0.67;;;;;21.09;45.98;103491.31;5075907;28;46173;-71
2023/02/04 04:10:37;;;;;;;;;3.00;2.00;;;;;21.12;45.51;103490.25;5075954;28;45360;-71
2023/02/04 04:13:03;;;;;;;;;0.00;0.00;;;;;21.12;46.17;103495.56;5076098;28;45363;-72
2023/02/04 04:15:29;;;;;;;;;0.00;0.00;;;;;21.11;46.12;103504.44;5076067;28;45324;-71
2023/02/04 04:17:54;;;;;;;;;0.00;0.00;;;;;21.04;45.65;103491.66;5075831;28;46197;-71
2023/02/04 04:20:24;;;;;;;;;1.00;1.00;;;;;21.10;45.79;103508.91;5075411;28;45301;-71
2023/02/04 04:22:49;;;;;;;;;0.33;0.33;;;;;21.11;45.88;103509.72;5075912;28;45314;-71
2023/02/04 04:25:14;;;;;;;;;1.00;1.00;;;;;21.09;46.21;103504.56;5075914;28;45357;-72
2023/02/04 04:27:40;;;;;;;;;3.67;1.33;;;;;21.07;45.91;103498.53;5075661;28;45310;-70
2023/02/04 04:30:06;;;;;;;;;0.67;0.67;;;;;21.02;45.80;103493.56;5075685;28;45397;-71
2023/02/04 04:32:31;;;;;;;;;1.00;0.00;;;;;21.13;45.47;103513.13;5075886;28;45350;-71
2023/02/04 04:34:56;;;;;;;;;0.67;0.67;;;;;21.13;45.72;103513.97;5075448;28;45302;-71
2023/02/04 04:37:21;;;;;;;;;1.00;1.00;;;;;21.13;45.87;103510.50;5075524;28;47246;-71
2023/02/04 04:39:47;;;;;;;;;0.00;0.00;;;;;21.10;45.52;103505.41;5075526;28;45447;-71
2023/02/04 04:42:12;;;;;;;;;1.00;0.00;;;;;21.13;45.67;103510.50;5075653;28;45383;-71
2023/02/04 04:44:38;;;;;;;;;1.67;0.67;;;;;21.12;45.65;103512.28;5075731;28;45573;-71
2023/02/04 04:47:03;;;;;;;;;1.00;1.00;;;;;21.13;45.45;103518.44;5075262;28;46131;-71
2023/02/04 04:49:28;;;;;;;;;3.00;0.00;;;;;21.12;45.66;103528.16;5075285;28;45268;-71
2023/02/04 04:51:54;;;;;;;;;1.00;1.00;;;;;21.12;45.72;103524.66;5075549;28;45384;-71
2023/02/04 04:54:19;;;;;;;;;3.00;1.00;;;;;21.11;45.74;103521.16;5075520;28;45555;-70
2023/02/04 04:56:44;;;;;;;;;1.00;1.00;;;;;21.11;45.88;103526.47;5075245;27;46078;-71
2023/02/04 04:59:10;;;;;;;;;0.00;0.00;;;;;21.12;45.58;103528.16;5075532;28;45383;-71
2023/02/04 05:01:35;;;;;;;;;1.00;1.00;;;;;21.11;45.40;103522.97;5075182;27;45428;-71
2023/02/04 05:04:02;;;;;;;;;0.00;0.00;;;;;21.11;45.57;103531.75;5074914;28;45384;-71
2023/02/04 05:06:28;;;;;;;;;2.00;0.33;;;;;21.10;45.89;103523.94;5075271;28;47156;-71
2023/02/04 05:08:53;;;;;;;;;3.00;1.00;;;;;21.05;45.48;103519.78;5075156;27;45370;-71
2023/02/04 05:11:19;;;;;;;;;1.00;1.00;;;;;21.11;45.73;103531.75;5075416;28;45370;-71
2023/02/04 05:13:46;;;;;;;;;0.00;0.00;;;;;21.11;45.51;103525.63;5078563;28;45423;-71
2023/02/04 05:16:11;;;;;;;;;1.00;1.00;;;;;21.04;45.77;103522.56;5078503;28;47208;-71
2023/02/04 05:18:40;;;;;;;;;0.00;0.00;;;;;21.11;45.79;103521.16;5078371;27;45477;-71
2023/02/04 05:21:07;;;;;;;;;0.67;0.67;;;;;21.10;45.90;103522.16;5078870;27;45407;-71
2023/02/04 05:23:32;;;;;;;;;1.00;1.00;;;;;21.03;45.78;103515.56;5078577;28;45368;-71
2023/02/04 05:25:58;;;;;;;;;0.00;0.00;;;;;20.98;45.67;103510.56;5078318;27;46174;-71
2023/02/04 05:28:23;;;;;;;;;1.00;1.00;;;;;21.02;45.90;103519.19;5078369;28;45376;-71
2023/02/04 05:30:49;;;;;;;;;1.00;1.00;;;;;21.09;45.75;103532.81;5078747;28;45388;-71
2023/02/04 05:33:14;;;;;;;;;0.67;0.67;;;;;21.09;45.93;103525.72;5078128;27;45347;-71
2023/02/04 05:35:39;;;;;;;;;1.67;1.00;;;;;21.10;45.72;103531.88;5078242;28;46180;-71
2023/02/04 05:38:05;;;;;;;;;0.67;0.67;;;;;21.09;45.60;103530.19;5078282;28;45349;-71
2023/02/04 05:40:30;;;;;;;;;0.00;0.00;;;;;21.09;45.80;103535.47;5078471;28;45292;-71
2023/02/04 05:42:55;;;;;;;;;1.00;1.00;;;;;21.08;45.39;103528.50;5078350;28;45364;-71
2023/02/04 05:45:21;;;;;;;;;1.00;1.00;;;;;21.09;45.88;103540.75;5078121;28;45351;-71
2023/02/04 05:47:46;;;;;;;;;1.00;1.00;;;;;21.02;45.71;103527.97;5077697;28;45257;-71
2023/02/04 05:50:12;;;;;;;;;0.67;0.67;;;;;21.03;45.19;103532.31;5078208;27;45404;-71
2023/02/04 05:52:37;;;;;;;;;2.00;0.33;;;;;21.03;45.64;103524.34;5078135;28;45376;-71
2023/02/04 05:55:03;;;;;;;;;1.00;1.00;;;;;21.01;45.28;103528.03;5078034;28;46109;-72
2023/02/04 05:57:28;;;;;;;;;2.67;1.00;;;;;21.10;45.40;103543.31;5078207;28;45668;-71
2023/02/04 05:59:54;;;;;;;;;0.00;0.00;;;;;21.11;45.64;103544.16;5078079;28;45342;-71
2023/02/04 06:02:19;;;;;;;;;1.00;1.00;;;;;21.11;45.41;103545.00;5077442;27;45472;-71
2023/02/04 06:04:44;;;;;;;;;0.33;0.33;;;;;21.11;45.77;103549.44;5077421;28;46951;-71
2023/02/04 06:07:10;;;;;;;;;0.00;0.00;;;;;21.11;45.32;103550.28;5059715;28;45751;-71
2023/02/04 06:09:35;;;;;;;;;0.00;0.00;;;;;21.02;45.37;103538.56;5059686;28;45291;-71
2023/02/04 06:12:00;;;;;;;;;2.00;1.00;;;;;21.10;45.67;103543.31;5077874;28;45355;-71
2023/02/04 06:14:26;;;;;;;;;0.67;0.67;;;;;21.10;45.56;103545.97;5077606;27;47018;-71
2023/02/04 06:16:51;;;;;;;;;2.00;0.33;;;;;21.10;45.58;103537.19;5077343;27;45313;-71
2023/02/04 06:19:16;;;;;;;;;1.00;1.00;;;;;21.02;45.29;103533.28;5077792;28;45328;-71
2023/02/04 06:21:42;;;;;;;;;0.00;0.00;;;;;21.10;45.55;103548.63;5077743;28;45379;-71
2023/02/04 06:24:08;;;;;;;;;2.33;1.00;;;;;21.10;45.76;103538.03;5077529;28;46202;-71
2023/02/04 06:26:33;;;;;;;;;0.00;0.00;;;;;21.10;45.41;103545.97;5077335;28;45481;-72
2023/02/04 06:28:58;;;;;;;;;1.67;1.00;;;;;21.10;45.61;103551.25;5077616;27;45428;-71
2023/02/04 06:31:23;;;;;;;;;0.00;0.00;;;;;21.10;45.48;103556.56;5077273;28;45363;-71
2023/02/04 06:33:49;;;;;;;;;0.00;0.00;;;;;21.10;45.18;103548.63;5077325;28;46075;-71
2023/02/04 06:36:15;;;;;;;;;0.67;0.67;;;;;21.09;45.26;103554.84;5059437;28;45508;-71
2023/02/04 06:38:40;;;;;;;;;2.00;1.00;;;;;21.03;45.14;103540.25;5077433;28;45403;-71
2023/02/04 06:41:05;;;;;;;;;1.00;0.00;;;;;21.10;45.17;103545.13;5077539;28;45428;-71
2023/02/04 06:43:31;;;;;;;;;1.00;1.00;;;;;21.09;45.58;103546.91;5077158;28;46280;-72
2023/02/04 06:45:56;;;;;;;;;4.00;1.33;;;;;21.07;45.69;103551.47;5076888;28;45440;-72
2023/02/04 06:48:21;;;;;;;;;1.00;1.00;;;;;21.09;45.35;103551.34;5077206;27;45355;-71
2023/02/04 06:50:47;;;;;;;;;1.00;0.67;;;;;21.08;45.68;103557.63;5076945;28;45642;-70
2023/02/04 06:53:12;;;;;;;;;0.67;0.67;;;;;21.09;45.43;103559.28;5077305;28;46017;-71
2023/02/04 06:55:38;;;;;;;;;0.00;0.00;;;;;20.99;45.65;103548.47;5076877;27;48160;-71
2023/02/04 06:58:03;;;;;;;;;1.00;1.00;;;;;21.05;45.54;103553.38;5077380;27;45421;-71
2023/02/04 07:00:30;;;;;;;;;0.00;0.00;;;;;21.08;45.54;103560.28;5055187;28;45355;-71
2023/02/04 07:02:57;;;;;;;;;1.00;1.00;;;;;21.07;45.08;103567.34;5056442;28;46837;-71
2023/02/04 07:05:23;;;;;;;;;1.00;1.00;;;;;21.06;45.68;103561.22;5056278;28;45220;-71
2023/02/04 07:07:48;;;;;;;;;2.67;0.00;;;;;21.01;45.66;103557.16;5056829;28;45486;-71
2023/02/04 07:10:15;;;;;;;;;1.00;1.00;;;;;21.07;45.30;103564.72;5056504;28;45352;-71
2023/02/04 07:12:41;;;;;;;;;1.00;1.00;;;;;20.92;45.18;103548.91;5056399;28;47214;-71
2023/02/04 07:15:06;;;;;;;;;1.33;0.33;;;;;21.09;45.57;103575.19;5056127;28;45332;-71
2023/02/04 07:17:32;;;;;;;;;1.00;1.00;;;;;21.05;45.33;103566.63;5038515;28;45384;-71
2023/02/04 07:19:57;;;;;;;;;0.00;0.00;;;;;21.09;45.37;103583.97;5056694;28;45442;-71
2023/02/04 07:22:22;;;;;;;;;1.00;1.00;;;;;21.08;45.53;103573.50;5056163;28;46327;-71
2023/02/04 07:24:47;;;;;;;;;0.00;0.00;;;;;21.09;45.04;103577.81;5056251;28;45358;-71
2023/02/04 07:27:13;;;;;;;;;1.67;1.00;;;;;21.08;45.27;103576.97;5056490;28;45324;-71
2023/02/04 07:29:38;;;;;;;;;0.00;0.00;;;;;21.10;45.26;103582.19;5056066;28;45233;-71
2023/02/04 07:32:04;;;;;;;;;0.00;0.00;;;;;21.10;44.90;103585.69;5056094;28;46266;-71
2023/02/04 07:34:29;;;;;;;;;2.00;0.33;;;;;21.10;45.43;103582.19;5055646;28;45289;-71
2023/02/04 07:36:54;;;;;;;;;1.00;1.00;;;;;21.10;45.51;103584.81;5056146;28;45396;-71
2023/02/04 07:39:20;;;;;;;;;1.00;1.00;;;;;21.09;45.25;103586.63;5056241;28;45359;-72
2023/02/04 07:41:45;;;;;;;;;1.00;1.00;;;;;21.10;45.26;103588.31;5055974;28;46983;-70
2023/02/04 07:44:10;;;;;;;;;1.00;1.00;;;;;21.10;45.41;103583.03;5055668;28;45362;-71
2023/02/04 07:46:35;;;;;;;;;1.00;1.00;;;;;21.10;45.32;103592.78;5056230;28;45285;-71
2023/02/04 07:49:01;;;;;;;;;2.00;0.67;;;;;21.10;45.10;103590.13;5073604;28;45415;-71
2023/02/04 07:51:26;;;;;;;;;0.00;0.00;;;;;21.10;45.49;103592.78;5076293;28;46184;-70
2023/02/04 07:53:52;;;;;;;;;1.33;1.33;;;;;21.10;45.42;103598.91;5076334;28;45380;-70
2023/02/04 07:56:17;;;;;;;;;0.00;0.00;;;;;21.10;45.33;103595.41;5076393;27;45293;-70
2023/02/04 07:58:42;;;;;;;;;1.00;1.00;;;;;21.10;45.36;103593.63;5075900;28;45294;-71
2023/02/04 08:01:07;;;;;;;;;0.67;0.67;;;;;21.09;45.37;103602.50;5076085;27;45522;-71
2023/02/04 08:03:33;;;;;;;;;2.00;0.33;;;;;21.02;45.56;103590.66;5076063;28;45395;-72
2023/02/04 08:05:58;;;;;;;;;0.00;0.00;;;;;20.96;45.29;103584.81;5076062;28;45369;-74
2023/02/04 08:08:23;;;;;;;;;0.00;0.00;;;;;21.08;45.45;103598.16;5057874;28;45499;-71
2023/02/04 08:10:49;;;;;;;;;0.67;0.67;;;;;21.06;45.23;103600.91;5075940;28;46207;-72
2023/02/04 08:13:14;;;;;;;;;1.00;1.00;;;;;21.06;45.46;103600.91;5075659;28;45399;-72
2023/02/04 08:15:39;;;;;;;;;0.67;0.67;;;;;21.10;45.73;103611.31;5075838;28;45393;-72
2023/02/04 08:18:05;;;;;;;;;1.00;1.00;;;;;21.11;45.60;103610.31;5075983;27;45458;-72
2023/02/04 08:20:30;;;;;;;;;0.00;0.00;;;;;21.10;45.59;103609.50;5075812;28;45425;-73
2023/02/04 08:22:56;;;;;;;;;0.00;0.00;;;;;21.13;45.93;103613.75;5075810;28;45444;-72
2023/02/04 08:25:21;;;;;;;;;0.33;0.33;;;;;21.06;45.90;103605.34;5076006;28;45516;-73
2023/02/04 08:27:47;;;;;;;;;2.00;1.00;;;;;21.15;45.73;103620.63;5075549;28;45368;-73
2023/02/04 08:30:12;;;;;;;;;1.00;1.00;;;;;21.15;45.69;103611.81;5075761;28;46038;-73
2023/02/04 08:32:38;;;;;;;;;0.33;0.33;;;;;21.15;46.02;103615.31;5075821;28;45327;-73
2023/02/04 08:35:04;;;;;;;;;2.00;1.00;;;;;21.16;45.33;103614.34;5075775;27;45359;-73
2023/02/04 08:37:30;;;;;;;;;0.00;0.00;;;;;21.14;45.96;103608.31;5075827;27;45539;-73
2023/02/04 08:39:55;;;;;;;;;1.00;1.00;;;;;21.17;45.74;103616.06;5075491;28;45938;-73
2023/02/04 08:42:20;;;;;;;;;1.00;1.00;;;;;21.18;45.47;103624.88;5075174;28;45393;-73
2023/02/04 08:44:46;;;;;;;;;0.00;0.00;;;;;21.15;45.70;103617.13;5075653;27;45296;-73
2023/02/04 08:47:11;;;;;;;;;1.00;0.00;;;;;21.09;45.73;103613.09;5076641;27;45399;-73
2023/02/04 08:49:36;;;;;;;;;0.33;0.33;;;;;21.15;45.68;103633.00;5078950;28;46185;-73
2023/02/04 08:52:04;;;;;;;;;2.00;0.33;;;;;21.16;45.50;103627.59;5078967;28;45397;-73
2023/02/04 08:54:30;;;;;;;;;1.00;0.00;;;;;21.18;45.60;103638.09;5079113;28;45402;-74
2023/02/04 08:56:55;;;;;;;;;1.33;1.33;;;;;21.18;45.54;103644.22;5060472;28;45272;-73
2023/02/04 08:59:22;;;;;;;;;0.00;0.00;;;;;21.19;45.54;103639.78;5078932;27;45268;-73
2023/02/04 09:01:51;;;;;;;;;0.00;0.00;;;;;21.20;45.99;103645.91;5078719;27;45274;-73
2023/02/04 09:04:17;;;;;;;;;0.33;0.33;;;;;21.10;45.79;103627.19;5078743;28;45440;-73
2023/02/04 09:06:42;;;;;;;;;2.00;0.67;;;;;21.21;45.48;103640.50;5078952;28;45425;-73
2023/02/04 09:09:08;;;;;;;;;1.00;1.00;;;;;21.18;45.82;103641.56;5078750;28;45362;-73
2023/02/04 09:11:33;;;;;;;;;1.33;0.33;;;;;21.22;45.92;103630.78;5078368;28;45915;-73
2023/02/04 09:13:58;;;;;;;;;1.00;1.00;;;;;21.12;45.83;103619.97;5078914;28;45399;-73
2023/02/04 09:16:24;;;;;;;;;0.67;0.00;;;;;21.22;45.62;103644.88;5078656;28;45634;-73
2023/02/04 09:18:49;;;;;;;;;2.00;0.00;;;;;21.21;45.18;103642.34;5078533;28;46077;-73
2023/02/04 09:21:14;;;;;;;;;1.00;1.00;;;;;21.23;45.60;103648.38;5078548;28;45848;-73
2023/02/04 09:23:39;;;;;;;;;0.33;0.33;;;;;21.20;45.40;103646.78;5078762;28;45312;-73
2023/02/04 09:26:05;;;;;;;;;1.00;1.00;;;;;21.22;45.42;103652.81;5078164;28;45363;-73
2023/02/04 09:28:31;;;;;;;;;1.00;1.00;;;;;21.18;45.60;103646.88;5078368;28;45928;-73
2023/02/04 09:30:56;;;;;;;;;2.00;1.00;;;;;21.24;45.74;103648.25;5078491;28;45367;-73
2023/02/04 09:33:22;;;;;;;;;2.00;0.00;;;;;21.20;45.40;103644.13;5078497;28;45488;-73
2023/02/04 09:35:48;;;;;;;;;0.00;0.00;;;;;21.23;45.12;103648.38;5078587;28;45390;-73
2023/02/04 09:38:14;;;;;;;;;1.00;1.00;;;;;21.17;45.35;103639.03;5078485;28;46106;-73
2023/02/04 09:40:48;;;;;;;;;0.33;0.33;;;;;21.23;45.29;103662.47;5077926;28;45384;-73
2023/02/04 09:43:20;;;;;;;;;1.33;0.00;;;;;21.23;45.60;103656.31;5078369;28;45299;-73
2023/02/04 09:45:48;;;;;;;;;0.00;0.00;;;;;21.17;45.47;103652.28;5078216;28;45383;-73
2023/02/04 09:48:14;;;;;;;;;0.00;0.00;;;;;21.12;45.49;103644.66;5077772;27;46350;-73
2023/02/04 09:50:40;;;;;;;;;1.00;1.00;;;;;21.24;45.08;103663.28;5078061;28;45378;-73
2023/02/04 09:53:06;;;;;;;;;0.67;0.67;;;;;21.25;45.35;103665.00;5077710;27;45623;-72
2023/02/04 09:55:36;;;;;;;;;1.33;1.00;;;;;21.27;45.22;103668.38;5078168;28;45221;-73
2023/02/04 09:58:02;;;;;;;;;0.00;0.00;;;;;21.20;45.34;103662.66;5077567;28;45342;-73
2023/02/04 10:00:29;;;;;;;;;1.33;0.33;;;;;21.23;45.07;103664.25;5077834;27;45350;-73
2023/02/04 10:03:01;;;;;;;;;2.00;1.00;;;;;21.21;45.46;103656.41;5078029;28;45283;-73
2023/02/04 10:05:29;;;;;;;;;1.00;1.00;;;;;21.26;45.01;103672.00;5077591;28;45558;-73
2023/02/04 10:07:55;;;;;;;;;0.00;0.00;;;;;21.27;45.53;103676.31;5077471;28;45438;-73
2023/02/04 10:10:24;;;;;;;;;1.00;0.00;;;;;21.16;44.84;103656.72;5077809;27;45363;-73
2023/02/04 10:12:53;;;;;;;;;2.00;0.00;;;;;21.28;45.67;103678.88;5077755;28;45344;-73
2023/02/04 10:15:19;;;;;;;;;0.33;0.33;;;;;21.22;45.27;103670.50;5077869;27;45348;-73
2023/02/04 10:17:51;;;;;;;;;1.00;1.00;;;;;21.28;45.42;103684.16;5077542;28;47172;-73
2023/02/04 10:20:21;;;;;;;;;1.67;0.00;;;;;21.29;45.46;103688.50;5077532;28;45370;-74
2023/02/04 10:22:48;;;;;;;;;1.00;1.00;;;;;21.30;45.41;103692.00;5077212;28;45411;-73
2023/02/04 10:25:19;;;;;;;;;0.00;0.00;;;;;21.29;45.00;103690.28;5077524;28;45360;-73
2023/02/04 10:27:58;;;;;;;;;1.00;1.00;;;;;21.30;45.25;103689.34;5077390;28;46275;-73
2023/02/04 10:30:37;;;;;;;;;0.00;0.00;;;;;21.31;44.96;103695.50;5077400;28;45684;-73
2023/02/04 10:33:23;;;;;;;;;0.00;0.00;;;;;21.31;45.41;103699.00;5077583;28;45379;-74
2023/02/04 10:35:51;;;;;;;;;0.33;0.33;;;;;21.31;44.87;103692.84;5077656;27;45379;-73
2023/02/04 10:38:16;;;;;;;;;0.00;0.00;;;;;21.32;45.34;103703.31;5076977;27;46501;-73
2023/02/04 10:40:42;;;;;;;;;0.00;0.00;;;;;21.33;45.03;103704.19;5077249;28;45248;-73
2023/02/04 10:43:09;;;;;;;;;0.00;0.00;;;;;21.34;45.16;103700.59;5077640;28;45429;-73
2023/02/04 10:45:35;;;;;;;;;0.00;0.00;;;;;21.31;45.15;103703.44;5077302;27;45281;-73
2023/02/04 10:48:00;;;;;;;;;0.00;0.00;;;;;21.20;45.28;103675.91;5076930;28;47371;-73
2023/02/04 10:50:29;;;;;;;;;2.00;0.00;;;;;21.33;45.01;103702.38;5076960;28;45424;-73
2023/02/04 10:55:43;;;;;;;;;1.33;1.33;;;;;21.32;44.77;103698.03;5077152;28;45480;-73
2023/02/04 10:58:23;;;;;;;;;2.00;2.00;;;;;21.33;44.79;103704.19;5076996;28;46199;-72
2023/02/04 11:00:49;;;;;;;;;1.00;1.00;;;;;21.24;44.80;103689.75;5076850;27;45221;-73
2023/02/04 11:03:25;;;;;;;;;2.33;1.00;;;;;21.34;45.01;103704.06;5076985;27;45600;-74
2023/02/04 11:05:54;;;;;;;;;1.00;1.00;;;;;21.35;44.68;103702.28;5076571;27;45455;-73
2023/02/04 11:08:21;;;;;;;;;1.00;1.00;;;;;21.34;45.15;103703.25;5076804;28;46286;-75
2023/02/04 11:10:50;;;;;;;;;0.00;0.00;;;;;21.33;44.61;103696.25;5075893;28;45309;-73
2023/02/04 11:13:38;;;;;;;;;1.67;1.67;;;;;21.33;44.85;103701.53;5076943;28;45406;-73
2023/02/04 11:16:08;;;;;;;;;2.00;1.00;;;;;21.35;45.19;103702.28;5076793;28;45380;-74
2023/02/04 11:18:46;;;;;;;;;1.00;1.00;;;;;21.35;44.92;103702.28;5076710;28;45376;-73
2023/02/04 11:21:23;;;;;;;;;2.00;1.00;;;;;21.36;44.66;103704.81;5076262;27;45342;-73
2023/02/04 11:23:49;;;;;;;;;1.00;1.00;;;;;21.31;45.25;103692.84;5076868;28;45454;-73